sensor_id;sensor_type;location;lat;lon;timestamp;pressure;altitude;pressure_sealevel;temperature;humidity
15914;BME280;8055;51.930;8.840;2023-05-24T00:00:03;77022.97;;;-145.72;100.00
15914;BME280;8055;51.930;8.840;2023-05-24T00:02:30;77025.03;;;-145.72;100.00
15914;BME280;8055;51.930;8.840;2023-05-24T00:04:55;77029.19;;;-145.72;100.00
15914;BME280;8055;51.930;8.840;2023-05-24T00:07:25;77045.75;;;-145.72;100.00
15914;BME280;8055;51.930;8.840;2023-05-24T00:09:50;77035.38;;;-145.72;100.00
15914;BME280;8055;51.930;8.840;2023-05-24T00:12:15;77037.47;;;-145.72;100.00
15914;BME280;8055;51.930;8.840;2023-05-24T00:14:41;77033.31;;;-145.72;100.00
15914;BME280;8055;51.930;8.840;2023-05-24T00:17:07;77039.53;;;-145.72;100.00
15914;BME280;8055;51.930;8.840;2023-05-24T00:19:32;77039.53;;;-145.72;100.00
15914;BME280;8055;51.930;8.840;2023-05-24T00:21:58;77039.53;;;-145.72;100.00
15914;BME280;8055;51.930;8.840;2023-05-24T00:24:23;77045.75;;;-145.72;100.00
15914;BME280;8055;51.930;8.840;2023-05-24T00:26:49;77043.66;;;-145.72;100.00
15914;BME280;8055;51.930;8.840;2023-05-24T00:29:14;77047.81;;;-145.72;100.00
15914;BME280;8055;51.930;8.840;2023-05-24T00:31:39;77054.03;;;-145.72;100.00
15914;BME280;8055;51.930;8.840;2023-05-24T00:34:05;77047.81;;;-145.72;100.00
15914;BME280;8055;51.930;8.840;2023-05-24T00:36:31;77047.81;;;-145.72;100.00
15914;BME280;8055;51.930;8.840;2023-05-24T00:38:57;77037.47;;;-145.72;100.00
15914;BME280;8055;51.930;8.840;2023-05-24T00:41:22;77043.66;;;-145.72;100.00
15914;BME280;8055;51.930;8.840;2023-05-24T00:43:48;77047.81;;;-145.72;100.00
15914;BME280;8055;51.930;8.840;2023-05-24T00:46:29;77051.94;;;-145.72;100.00
15914;BME280;8055;51.930;8.840;2023-05-24T00:48:55;77041.59;;;-145.72;100.00
15914;BME280;8055;51.930;8.840;2023-05-24T00:51:21;77054.03;;;-145.72;100.00
15914;BME280;8055;51.930;8.840;2023-05-24T00:53:48;77054.03;;;-145.72;100.00
15914;BME280;8055;51.930;8.840;2023-05-24T00:56:14;77058.16;;;-145.72;100.00
15914;BME280;8055;51.930;8.840;2023-05-24T00:58:40;77078.84;;;-145.72;100.00
15914;BME280;8055;51.930;8.840;2023-05-24T01:01:06;77076.78;;;-145.72;100.00
15914;BME280;8055;51.930;8.840;2023-05-24T01:03:32;77070.56;;;-145.72;100.00
15914;BME280;8055;51.930;8.840;2023-05-24T01:05:59;77078.84;;;-145.72;100.00
15914;BME280;8055;51.930;8.840;2023-05-24T01:14:05;77066.44;;;-145.72;100.00
15914;BME280;8055;51.930;8.840;2023-05-24T01:16:48;77058.16;;;-145.72;100.00
15914;BME280;8055;51.930;8.840;2023-05-24T01:22:48;77060.22;;;-145.72;100.00
15914;BME280;8055;51.930;8.840;2023-05-24T01:28:04;77054.03;;;-145.72;100.00
15914;BME280;8055;51.930;8.840;2023-05-24T01:30:30;77047.81;;;-145.72;100.00
15914;BME280;8055;51.930;8.840;2023-05-24T01:32:56;77049.88;;;-145.72;100.00
15914;BME280;8055;51.930;8.840;2023-05-24T01:35:22;77045.75;;;-145.72;100.00
15914;BME280;8055;51.930;8.840;2023-05-24T01:37:47;77056.09;;;-145.72;100.00
15914;BME280;8055;51.930;8.840;2023-05-24T01:40:13;77060.22;;;-145.72;100.00
15914;BME280;8055;51.930;8.840;2023-05-24T01:42:50;77062.31;;;-145.72;100.00
15914;BME280;8055;51.930;8.840;2023-05-24T01:45:33;77058.16;;;-145.72;100.00
15914;BME280;8055;51.930;8.840;2023-05-24T01:51:48;77056.09;;;-145.72;100.00
15914;BME280;8055;51.930;8.840;2023-05-24T01:54:20;77051.94;;;-145.72;100.00
15914;BME280;8055;51.930;8.840;2023-05-24T01:56:47;77045.75;;;-145.72;100.00
15914;BME280;8055;51.930;8.840;2023-05-24T01:59:13;77070.56;;;-145.72;100.00
15914;BME280;8055;51.930;8.840;2023-05-24T02:01:39;77068.50;;;-145.72;100.00
15914;BME280;8055;51.930;8.840;2023-05-24T02:04:04;77062.31;;;-145.72;100.00
15914;BME280;8055;51.930;8.840;2023-05-24T02:06:30;77070.56;;;-145.72;100.00
15914;BME280;8055;51.930;8.840;2023-05-24T02:08:55;77062.31;;;-145.72;100.00
15914;BME280;8055;51.930;8.840;2023-05-24T02:11:21;77054.03;;;-145.72;100.00
15914;BME280;8055;51.930;8.840;2023-05-24T02:13:47;77051.94;;;-145.72;100.00
15914;BME280;8055;51.930;8.840;2023-05-24T02:16:12;77056.09;;;-145.72;100.00
15914;BME280;8055;51.930;8.840;2023-05-24T02:18:37;77054.03;;;-145.72;100.00
15914;BME280;8055;51.930;8.840;2023-05-24T02:21:03;77047.81;;;-145.72;100.00
15914;BME280;8055;51.930;8.840;2023-05-24T02:23:28;77051.94;;;-145.72;100.00
15914;BME280;8055;51.930;8.840;2023-05-24T02:25:54;77049.88;;;-145.72;100.00
15914;BME280;8055;51.930;8.840;2023-05-24T02:28:20;77047.81;;;-145.72;100.00
15914;BME280;8055;51.930;8.840;2023-05-24T02:30:45;77041.59;;;-145.72;100.00
15914;BME280;8055;51.930;8.840;2023-05-24T02:33:11;77047.81;;;-145.72;100.00
15914;BME280;8055;51.930;8.840;2023-05-24T02:35:37;77056.09;;;-145.72;100.00
15914;BME280;8055;51.930;8.840;2023-05-24T02:38:03;77045.75;;;-145.72;100.00
15914;BME280;8055;51.930;8.840;2023-05-24T02:40:30;77054.03;;;-145.72;100.00
15914;BME280;8055;51.930;8.840;2023-05-24T02:42:56;77062.31;;;-145.72;100.00
15914;BME280;8055;51.930;8.840;2023-05-24T02:45:21;77074.72;;;-145.72;100.00
15914;BME280;8055;51.930;8.840;2023-05-24T02:47:46;77056.09;;;-145.72;100.00
15914;BME280;8055;51.930;8.840;2023-05-24T02:50:12;77054.03;;;-145.72;100.00
15914;BME280;8055;51.930;8.840;2023-05-24T02:52:37;77049.88;;;-145.72;100.00
15914;BME280;8055;51.930;8.840;2023-05-24T02:55:03;77060.22;;;-145.72;100.00
15914;BME280;8055;51.930;8.840;2023-05-24T02:57:28;77058.16;;;-145.72;100.00
15914;BME280;8055;51.930;8.840;2023-05-24T02:59:53;77047.81;;;-145.72;100.00
15914;BME280;8055;51.930;8.840;2023-05-24T03:02:20;77058.16;;;-145.72;100.00
15914;BME280;8055;51.930;8.840;2023-05-24T03:04:46;77066.44;;;-145.72;100.00
15914;BME280;8055;51.930;8.840;2023-05-24T03:07:11;77068.50;;;-145.72;100.00
15914;BME280;8055;51.930;8.840;2023-05-24T03:09:38;77072.66;;;-145.72;100.00
15914;BME280;8055;51.930;8.840;2023-05-24T03:12:04;77070.56;;;-145.72;100.00
15914;BME280;8055;51.930;8.840;2023-05-24T03:14:29;77070.56;;;-145.72;100.00
15914;BME280;8055;51.930;8.840;2023-05-24T03:16:55;77064.38;;;-145.72;100.00
15914;BME280;8055;51.930;8.840;2023-05-24T03:19:20;77068.50;;;-145.72;100.00
15914;BME280;8055;51.930;8.840;2023-05-24T03:21:46;77058.16;;;-145.72;100.00
15914;BME280;8055;51.930;8.840;2023-05-24T03:24:11;77060.22;;;-145.72;100.00
15914;BME280;8055;51.930;8.840;2023-05-24T03:26:38;77054.03;;;-145.72;100.00
15914;BME280;8055;51.930;8.840;2023-05-24T03:29:04;77062.31;;;-145.72;100.00
15914;BME280;8055;51.930;8.840;2023-05-24T03:31:29;77070.56;;;-145.72;100.00
15914;BME280;8055;51.930;8.840;2023-05-24T03:33:55;77083.00;;;-145.72;100.00
15914;BME280;8055;51.930;8.840;2023-05-24T03:36:20;77089.22;;;-145.72;100.00
15914;BME280;8055;51.930;8.840;2023-05-24T03:38:46;77076.78;;;-145.72;100.00
15914;BME280;8055;51.930;8.840;2023-05-24T03:41:11;77074.72;;;-145.72;100.00
15914;BME280;8055;51.930;8.840;2023-05-24T03:43:36;77074.72;;;-145.72;100.00
15914;BME280;8055;51.930;8.840;2023-05-24T03:46:02;77070.56;;;-145.72;100.00
15914;BME280;8055;51.930;8.840;2023-05-24T03:48:27;77074.72;;;-145.72;100.00
15914;BME280;8055;51.930;8.840;2023-05-24T03:50:52;77070.56;;;-145.72;100.00
15914;BME280;8055;51.930;8.840;2023-05-24T03:53:19;77062.31;;;-145.72;100.00
15914;BME280;8055;51.930;8.840;2023-05-24T03:55:44;77054.03;;;-145.72;100.00
15914;BME280;8055;51.930;8.840;2023-05-24T03:58:10;77045.75;;;-145.72;100.00
15914;BME280;8055;51.930;8.840;2023-05-24T04:00:36;77037.47;;;-145.72;100.00
15914;BME280;8055;51.930;8.840;2023-05-24T04:03:02;77022.97;;;-145.72;100.00
15914;BME280;8055;51.930;8.840;2023-05-24T04:05:32;77033.31;;;-145.72;100.00
15914;BME280;8055;51.930;8.840;2023-05-24T04:07:57;77029.19;;;-145.72;100.00
15914;BME280;8055;51.930;8.840;2023-05-24T04:10:23;77027.13;;;-145.72;100.00
15914;BME280;8055;51.930;8.840;2023-05-24T04:12:48;77020.91;;;-145.72;100.00
15914;BME280;8055;51.930;8.840;2023-05-24T04:15:14;77012.63;;;-145.72;100.00
15914;BME280;8055;51.930;8.840;2023-05-24T04:17:43;77016.75;;;-145.72;100.00
15914;BME280;8055;51.930;8.840;2023-05-24T04:20:10;77016.75;;;-145.72;100.00
15914;BME280;8055;51.930;8.840;2023-05-24T04:22:35;77020.91;;;-145.72;100.00
15914;BME280;8055;51.930;8.840;2023-05-24T04:25:02;76998.13;;;-145.72;100.00
15914;BME280;8055;51.930;8.840;2023-05-24T04:27:27;77004.34;;;-145.72;100.00
15914;BME280;8055;51.930;8.840;2023-05-24T04:29:54;77002.28;;;-145.72;100.00
15914;BME280;8055;51.930;8.840;2023-05-24T04:32:20;77000.19;;;-145.72;100.00
15914;BME280;8055;51.930;8.840;2023-05-24T04:34:45;76998.13;;;-145.72;100.00
15914;BME280;8055;51.930;8.840;2023-05-24T04:37:11;76987.78;;;-145.72;100.00
15914;BME280;8055;51.930;8.840;2023-05-24T04:39:42;76991.94;;;-145.72;100.00
15914;BME280;8055;51.930;8.840;2023-05-24T04:42:08;76987.78;;;-145.72;100.00
15914;BME280;8055;51.930;8.840;2023-05-24T04:44:34;76979.50;;;-145.72;100.00
15914;BME280;8055;51.930;8.840;2023-05-24T04:47:00;76977.44;;;-145.72;100.00
15914;BME280;8055;51.930;8.840;2023-05-24T04:49:28;76971.22;;;-145.72;100.00
15914;BME280;8055;51.930;8.840;2023-05-24T04:51:53;76975.38;;;-145.72;100.00
15914;BME280;8055;51.930;8.840;2023-05-24T04:54:19;76967.09;;;-145.72;100.00
15914;BME280;8055;51.930;8.840;2023-05-24T04:56:44;76962.94;;;-145.72;100.00
15914;BME280;8055;51.930;8.840;2023-05-24T04:59:10;76956.75;;;-145.72;100.00
15914;BME280;8055;51.930;8.840;2023-05-24T05:01:35;76960.88;;;-145.72;100.00
15914;BME280;8055;51.930;8.840;2023-05-24T05:04:02;76958.81;;;-145.72;100.00
15914;BME280;8055;51.930;8.840;2023-05-24T05:06:28;76950.53;;;-145.72;100.00
15914;BME280;8055;51.930;8.840;2023-05-24T05:08:54;76956.75;;;-145.72;100.00
15914;BME280;8055;51.930;8.840;2023-05-24T05:11:19;76948.47;;;-145.72;100.00
15914;BME280;8055;51.930;8.840;2023-05-24T05:13:44;76950.53;;;-145.72;100.00
15914;BME280;8055;51.930;8.840;2023-05-24T05:16:10;76938.09;;;-145.72;100.00
15914;BME280;8055;51.930;8.840;2023-05-24T05:18:36;76933.97;;;-145.72;100.00
15914;BME280;8055;51.930;8.840;2023-05-24T05:21:02;76927.75;;;-145.72;100.00
15914;BME280;8055;51.930;8.840;2023-05-24T05:23:28;76933.97;;;-145.72;100.00
15914;BME280;8055;51.930;8.840;2023-05-24T05:25:54;76921.53;;;-145.72;100.00
15914;BME280;8055;51.930;8.840;2023-05-24T05:28:20;76923.63;;;-145.72;100.00
15914;BME280;8055;51.930;8.840;2023-05-24T05:30:45;76911.19;;;-145.72;100.00
15914;BME280;8055;51.930;8.840;2023-05-24T05:33:11;76896.72;;;-145.72;100.00
15914;BME280;8055;51.930;8.840;2023-05-24T05:35:36;76902.91;;;-145.72;100.00
15914;BME280;8055;51.930;8.840;2023-05-24T05:38:01;76890.50;;;-145.72;100.00
15914;BME280;8055;51.930;8.840;2023-05-24T05:40:27;76905.00;;;-145.72;100.00
15914;BME280;8055;51.930;8.840;2023-05-24T05:42:52;76900.84;;;-145.72;100.00
15914;BME280;8055;51.930;8.840;2023-05-24T05:45:18;76905.00;;;-145.72;100.00
15914;BME280;8055;51.930;8.840;2023-05-24T05:47:43;76900.84;;;-145.72;100.00
15914;BME280;8055;51.930;8.840;2023-05-24T05:50:09;76894.63;;;-145.72;100.00
15914;BME280;8055;51.930;8.840;2023-05-24T05:52:34;76880.16;;;-145.72;100.00
15914;BME280;8055;51.930;8.840;2023-05-24T05:55:00;76869.81;;;-145.72;100.00
15914;BME280;8055;51.930;8.840;2023-05-24T05:57:25;76855.31;;;-145.72;100.00
15914;BME280;8055;51.930;8.840;2023-05-24T05:59:51;76849.09;;;-145.72;100.00
15914;BME280;8055;51.930;8.840;2023-05-24T06:02:16;76851.19;;;-145.72;100.00
15914;BME280;8055;51.930;8.840;2023-05-24T06:04:47;76844.97;;;-145.72;100.00
15914;BME280;8055;51.930;8.840;2023-05-24T06:07:12;76847.03;;;-145.72;100.00
15914;BME280;8055;51.930;8.840;2023-05-24T06:09:37;76834.63;;;-145.72;100.00
15914;BME280;8055;51.930;8.840;2023-05-24T06:12:03;76818.06;;;-145.72;100.00
15914;BME280;8055;51.930;8.840;2023-05-24T06:14:29;76803.56;;;-145.72;100.00
15914;BME280;8055;51.930;8.840;2023-05-24T06:16:55;76782.88;;;-145.72;100.00
15914;BME280;8055;51.930;8.840;2023-05-24T06:19:21;76764.25;;;-145.72;100.00
15914;BME280;8055;51.930;8.840;2023-05-24T06:21:47;76768.38;;;-145.72;100.00
15914;BME280;8055;51.930;8.840;2023-05-24T06:24:14;76764.25;;;-145.72;100.00
15914;BME280;8055;51.930;8.840;2023-05-24T06:26:40;76745.63;;;-145.72;100.00
15914;BME280;8055;51.930;8.840;2023-05-24T06:29:06;76724.91;;;-145.72;100.00
15914;BME280;8055;51.930;8.840;2023-05-24T06:31:32;76706.28;;;-145.72;100.00
15914;BME280;8055;51.930;8.840;2023-05-24T06:33:58;76693.88;;;-145.72;100.00
15914;BME280;8055;51.930;8.840;2023-05-24T06:36:24;76689.72;;;-145.72;100.00
15914;BME280;8055;51.930;8.840;2023-05-24T06:38:50;76675.25;;;-145.72;100.00
15914;BME280;8055;51.930;8.840;2023-05-24T06:41:15;76666.97;;;-145.72;100.00
15914;BME280;8055;51.930;8.840;2023-05-24T06:43:41;76664.91;;;-145.72;100.00
15914;BME280;8055;51.930;8.840;2023-05-24T06:46:06;76656.63;;;-145.72;100.00
15914;BME280;8055;51.930;8.840;2023-05-24T06:48:32;76654.56;;;-145.72;100.00
15914;BME280;8055;51.930;8.840;2023-05-24T06:50:57;76660.75;;;-145.72;100.00
15914;BME280;8055;51.930;8.840;2023-05-24T06:53:22;76669.03;;;-145.72;100.00
15914;BME280;8055;51.930;8.840;2023-05-24T06:55:48;76662.81;;;-145.72;100.00
15914;BME280;8055;51.930;8.840;2023-05-24T06:58:13;76662.81;;;-145.72;100.00
15914;BME280;8055;51.930;8.840;2023-05-24T07:00:40;76656.63;;;-145.72;100.00
15914;BME280;8055;51.930;8.840;2023-05-24T07:03:07;76664.91;;;-145.72;100.00
15914;BME280;8055;51.930;8.840;2023-05-24T07:05:33;76685.59;;;-145.72;100.00
15914;BME280;8055;51.930;8.840;2023-05-24T07:07:59;76695.94;;;-145.72;100.00
15914;BME280;8055;51.930;8.840;2023-05-24T07:10:25;76702.16;;;-145.72;100.00
15914;BME280;8055;51.930;8.840;2023-05-24T07:12:50;76710.44;;;-145.72;100.00
15914;BME280;8055;51.930;8.840;2023-05-24T07:15:16;76737.34;;;-145.72;100.00
15914;BME280;8055;51.930;8.840;2023-05-24T07:17:42;76739.41;;;-145.72;100.00
15914;BME280;8055;51.930;8.840;2023-05-24T07:20:08;76743.53;;;-145.72;100.00
15914;BME280;8055;51.930;8.840;2023-05-24T07:22:38;76741.47;;;-145.72;100.00
15914;BME280;8055;51.930;8.840;2023-05-24T07:25:04;76735.28;;;-145.72;100.00
15914;BME280;8055;51.930;8.840;2023-05-24T07:27:29;76710.44;;;-145.72;100.00
15914;BME280;8055;51.930;8.840;2023-05-24T07:29:55;76673.19;;;-145.72;100.00
15914;BME280;8055;51.930;8.840;2023-05-24T07:32:21;76650.41;;;-145.72;100.00
15914;BME280;8055;51.930;8.840;2023-05-24T07:34:47;76642.13;;;-145.72;100.00
15914;BME280;8055;51.930;8.840;2023-05-24T07:37:12;76638.00;;;-145.72;100.00
15914;BME280;8055;51.930;8.840;2023-05-24T07:39:38;76640.06;;;-145.72;100.00
15914;BME280;8055;51.930;8.840;2023-05-24T07:42:04;76635.94;;;-145.72;100.00
15914;BME280;8055;51.930;8.840;2023-05-24T07:44:29;76633.84;;;-145.72;100.00
15914;BME280;8055;51.930;8.840;2023-05-24T07:46:55;76631.78;;;-145.72;100.00
15914;BME280;8055;51.930;8.840;2023-05-24T07:49:21;76623.50;;;-145.72;100.00
15914;BME280;8055;51.930;8.840;2023-05-24T07:51:46;76596.59;;;-145.72;100.00
15914;BME280;8055;51.930;8.840;2023-05-24T07:54:12;76563.47;;;-145.72;100.00
15914;BME280;8055;51.930;8.840;2023-05-24T07:56:39;76526.22;;;-145.72;100.00
15914;BME280;8055;51.930;8.840;2023-05-24T07:59:04;76476.56;;;-145.72;100.00
15914;BME280;8055;51.930;8.840;2023-05-24T08:01:31;76462.06;;;-145.72;100.00
15914;BME280;8055;51.930;8.840;2023-05-24T08:03:58;76462.06;;;-145.72;100.00
15914;BME280;8055;51.930;8.840;2023-05-24T08:06:24;76482.78;;;-145.72;100.00
15914;BME280;8055;51.930;8.840;2023-05-24T08:08:49;76482.78;;;-145.72;100.00
15914;BME280;8055;51.930;8.840;2023-05-24T08:11:15;76470.34;;;-145.72;100.00
15914;BME280;8055;51.930;8.840;2023-05-24T08:13:41;76462.06;;;-145.72;100.00
15914;BME280;8055;51.930;8.840;2023-05-24T08:16:07;76474.50;;;-145.72;100.00
15914;BME280;8055;51.930;8.840;2023-05-24T08:18:32;76480.69;;;-145.72;100.00
15914;BME280;8055;51.930;8.840;2023-05-24T08:20:58;76493.13;;;-145.72;100.00
15914;BME280;8055;51.930;8.840;2023-05-24T08:23:24;76528.31;;;-145.72;100.00
15914;BME280;8055;51.930;8.840;2023-05-24T08:25:49;76524.16;;;-145.72;100.00
15914;BME280;8055;51.930;8.840;2023-05-24T08:28:14;76528.31;;;-145.72;100.00
15914;BME280;8055;51.930;8.840;2023-05-24T08:30:41;76530.38;;;-145.72;100.00
15914;BME280;8055;51.930;8.840;2023-05-24T08:33:06;76528.31;;;-145.72;100.00
15914;BME280;8055;51.930;8.840;2023-05-24T08:35:31;76538.66;;;-145.72;100.00
15914;BME280;8055;51.930;8.840;2023-05-24T08:37:57;76559.34;;;-145.72;100.00
15914;BME280;8055;51.930;8.840;2023-05-24T08:40:23;76563.47;;;-145.72;100.00
15914;BME280;8055;51.930;8.840;2023-05-24T08:42:49;76563.47;;;-145.72;100.00
15914;BME280;8055;51.930;8.840;2023-05-24T08:45:16;76551.06;;;-145.72;100.00
15914;BME280;8055;51.930;8.840;2023-05-24T08:47:42;76549.00;;;-145.72;100.00
15914;BME280;8055;51.930;8.840;2023-05-24T08:50:10;76528.31;;;-145.72;100.00
15914;BME280;8055;51.930;8.840;2023-05-24T08:52:35;76520.03;;;-145.72;100.00
15914;BME280;8055;51.930;8.840;2023-05-24T08:55:02;76530.38;;;-145.72;100.00
15914;BME280;8055;51.930;8.840;2023-05-24T08:57:30;76522.09;;;-145.72;100.00
15914;BME280;8055;51.930;8.840;2023-05-24T08:59:56;76530.38;;;-145.72;100.00
15914;BME280;8055;51.930;8.840;2023-05-24T09:02:22;76528.31;;;-145.72;100.00
15914;BME280;8055;51.930;8.840;2023-05-24T09:04:51;76536.59;;;-145.72;100.00
15914;BME280;8055;51.930;8.840;2023-05-24T09:07:18;76540.72;;;-145.72;100.00
15914;BME280;8055;51.930;8.840;2023-05-24T09:09:52;76546.94;;;-145.72;100.00
15914;BME280;8055;51.930;8.840;2023-05-24T09:12:20;76555.22;;;-145.72;100.00
15914;BME280;8055;51.930;8.840;2023-05-24T09:14:46;76557.28;;;-145.72;100.00
15914;BME280;8055;51.930;8.840;2023-05-24T09:17:12;76555.22;;;-145.72;100.00
15914;BME280;8055;51.930;8.840;2023-05-24T09:19:46;76557.28;;;-145.72;100.00
15914;BME280;8055;51.930;8.840;2023-05-24T09:22:12;76549.00;;;-145.72;100.00
15914;BME280;8055;51.930;8.840;2023-05-24T09:24:42;76553.13;;;-145.72;100.00
15914;BME280;8055;51.930;8.840;2023-05-24T09:27:07;76561.41;;;-145.72;100.00
15914;BME280;8055;51.930;8.840;2023-05-24T09:29:36;76575.91;;;-145.72;100.00
15914;BME280;8055;51.930;8.840;2023-05-24T09:32:03;76588.31;;;-145.72;100.00
15914;BME280;8055;51.930;8.840;2023-05-24T09:34:41;76596.59;;;-145.72;100.00
15914;BME280;8055;51.930;8.840;2023-05-24T09:37:14;76598.66;;;-145.72;100.00
15914;BME280;8055;51.930;8.840;2023-05-24T09:39:43;76615.22;;;-145.72;100.00
15914;BME280;8055;51.930;8.840;2023-05-24T09:42:16;76606.94;;;-145.72;100.00
15914;BME280;8055;51.930;8.840;2023-05-24T09:44:46;76623.50;;;-145.72;100.00
15914;BME280;8055;51.930;8.840;2023-05-24T09:47:12;76646.28;;;-145.72;100.00
15914;BME280;8055;51.930;8.840;2023-05-24T09:49:37;76652.47;;;-145.72;100.00
15914;BME280;8055;51.930;8.840;2023-05-24T09:52:03;76671.09;;;-145.72;100.00
15914;BME280;8055;51.930;8.840;2023-05-24T09:54:31;76677.31;;;-145.72;100.00
15914;BME280;8055;51.930;8.840;2023-05-24T09:56:59;76673.19;;;-145.72;100.00
15914;BME280;8055;51.930;8.840;2023-05-24T09:59:26;76677.31;;;-145.72;100.00
15914;BME280;8055;51.930;8.840;2023-05-24T10:01:56;76666.97;;;-145.72;100.00
15914;BME280;8055;51.930;8.840;2023-05-24T10:04:33;76658.69;;;-145.72;100.00
15914;BME280;8055;51.930;8.840;2023-05-24T10:06:59;76650.41;;;-145.72;100.00
15914;BME280;8055;51.930;8.840;2023-05-24T10:09:28;76644.19;;;-145.72;100.00
15914;BME280;8055;51.930;8.840;2023-05-24T10:12:00;76635.94;;;-145.72;100.00
15914;BME280;8055;51.930;8.840;2023-05-24T10:14:27;76640.06;;;-145.72;100.00
15914;BME280;8055;51.930;8.840;2023-05-24T10:16:53;76638.00;;;-145.72;100.00
15914;BME280;8055;51.930;8.840;2023-05-24T10:19:19;76644.19;;;-145.72;100.00
15914;BME280;8055;51.930;8.840;2023-05-24T10:21:46;76638.00;;;-145.72;100.00
15914;BME280;8055;51.930;8.840;2023-05-24T10:24:16;76635.94;;;-145.72;100.00
15914;BME280;8055;51.930;8.840;2023-05-24T10:26:43;76625.56;;;-145.72;100.00
15914;BME280;8055;51.930;8.840;2023-05-24T10:29:18;76600.75;;;-145.72;100.00
15914;BME280;8055;51.930;8.840;2023-05-24T10:31:49;76584.19;;;-145.72;100.00
15914;BME280;8055;51.930;8.840;2023-05-24T10:34:16;76555.22;;;-145.72;100.00
15914;BME280;8055;51.930;8.840;2023-05-24T10:36:43;76540.72;;;-145.72;100.00
15914;BME280;8055;51.930;8.840;2023-05-24T10:39:09;76522.09;;;-145.72;100.00
15914;BME280;8055;51.930;8.840;2023-05-24T10:41:39;76507.59;;;-145.72;100.00
15914;BME280;8055;51.930;8.840;2023-05-24T10:44:10;76505.53;;;-145.72;100.00
15914;BME280;8055;51.930;8.840;2023-05-24T10:47:00;76520.03;;;-145.72;100.00
15914;BME280;8055;51.930;8.840;2023-05-24T10:49:26;76553.13;;;-145.72;100.00
15914;BME280;8055;51.930;8.840;2023-05-24T10:51:59;76565.56;;;-145.72;100.00
15914;BME280;8055;51.930;8.840;2023-05-24T10:54:26;76567.63;;;-145.72;100.00
15914;BME280;8055;51.930;8.840;2023-05-24T10:56:51;76575.91;;;-145.72;100.00
15914;BME280;8055;51.930;8.840;2023-05-24T11:01:53;76598.66;;;-145.72;100.00
15914;BME280;8055;51.930;8.840;2023-05-24T11:04:19;76602.81;;;-145.72;100.00
15914;BME280;8055;51.930;8.840;2023-05-24T11:06:53;76598.66;;;-145.72;100.00
15914;BME280;8055;51.930;8.840;2023-05-24T11:09:20;76596.59;;;-145.72;100.00
15914;BME280;8055;51.930;8.840;2023-05-24T11:11:47;76590.38;;;-145.72;100.00
15914;BME280;8055;51.930;8.840;2023-05-24T11:14:17;76586.25;;;-145.72;100.00
15914;BME280;8055;51.930;8.840;2023-05-24T11:16:45;76586.25;;;-145.72;100.00
15914;BME280;8055;51.930;8.840;2023-05-24T11:21:39;76598.66;;;-145.72;100.00
15914;BME280;8055;51.930;8.840;2023-05-24T11:24:05;76588.31;;;-145.72;100.00
15914;BME280;8055;51.930;8.840;2023-05-24T11:26:31;76580.03;;;-145.72;100.00
15914;BME280;8055;51.930;8.840;2023-05-24T11:28:56;76577.97;;;-145.72;100.00
15914;BME280;8055;51.930;8.840;2023-05-24T11:31:27;76573.84;;;-145.72;100.00
15914;BME280;8055;51.930;8.840;2023-05-24T11:33:52;76573.84;;;-145.72;100.00
15914;BME280;8055;51.930;8.840;2023-05-24T11:36:19;76571.75;;;-145.72;100.00
15914;BME280;8055;51.930;8.840;2023-05-24T11:38:46;76565.56;;;-145.72;100.00
15914;BME280;8055;51.930;8.840;2023-05-24T11:41:12;76565.56;;;-145.72;100.00
15914;BME280;8055;51.930;8.840;2023-05-24T11:43:37;76567.63;;;-145.72;100.00
15914;BME280;8055;51.930;8.840;2023-05-24T11:46:03;76577.97;;;-145.72;100.00
15914;BME280;8055;51.930;8.840;2023-05-24T11:48:28;76588.31;;;-145.72;100.00
15914;BME280;8055;51.930;8.840;2023-05-24T11:50:55;76592.47;;;-145.72;100.00
15914;BME280;8055;51.930;8.840;2023-05-24T11:53:21;76617.28;;;-145.72;100.00
15914;BME280;8055;51.930;8.840;2023-05-24T11:55:46;76611.09;;;-145.72;100.00
15914;BME280;8055;51.930;8.840;2023-05-24T12:00:42;76582.13;;;-145.72;100.00
15914;BME280;8055;51.930;8.840;2023-05-24T12:03:08;76565.56;;;-145.72;100.00
15914;BME280;8055;51.930;8.840;2023-05-24T12:05:33;76555.22;;;-145.72;100.00
15914;BME280;8055;51.930;8.840;2023-05-24T12:08:08;76526.22;;;-145.72;100.00
15914;BME280;8055;51.930;8.840;2023-05-24T12:10:35;76511.75;;;-145.72;100.00
15914;BME280;8055;51.930;8.840;2023-05-24T12:13:02;76499.31;;;-145.72;100.00
15914;BME280;8055;51.930;8.840;2023-05-24T12:15:28;76491.03;;;-145.72;100.00
15914;BME280;8055;51.930;8.840;2023-05-24T12:17:55;76480.69;;;-145.72;100.00
15914;BME280;8055;51.930;8.840;2023-05-24T12:20:21;76453.78;;;-145.72;100.00
15914;BME280;8055;51.930;8.840;2023-05-24T12:22:51;76431.03;;;-145.72;100.00
15914;BME280;8055;51.930;8.840;2023-05-24T12:25:21;76402.06;;;-145.72;100.00
15914;BME280;8055;51.930;8.840;2023-05-24T12:27:52;76342.03;;;-145.72;100.00
15914;BME280;8055;51.930;8.840;2023-05-24T12:30:21;76325.47;;;-145.72;100.00
15914;BME280;8055;51.930;8.840;2023-05-24T12:32:47;76325.47;;;-145.72;100.00
15914;BME280;8055;51.930;8.840;2023-05-24T12:35:13;76302.72;;;-145.72;100.00
15914;BME280;8055;51.930;8.840;2023-05-24T12:37:38;76298.59;;;-145.72;100.00
15914;BME280;8055;51.930;8.840;2023-05-24T12:40:17;76288.22;;;-145.72;100.00
15914;BME280;8055;51.930;8.840;2023-05-24T12:42:54;76300.66;;;-145.72;100.00
15914;BME280;8055;51.930;8.840;2023-05-24T12:45:24;76335.84;;;-145.72;100.00
15914;BME280;8055;51.930;8.840;2023-05-24T12:47:52;76360.66;;;-145.72;100.00
15914;BME280;8055;51.930;8.840;2023-05-24T12:50:19;76377.22;;;-145.72;100.00
15914;BME280;8055;51.930;8.840;2023-05-24T12:52:46;76397.91;;;-145.72;100.00
15914;BME280;8055;51.930;8.840;2023-05-24T12:55:14;76412.41;;;-145.72;100.00
15914;BME280;8055;51.930;8.840;2023-05-24T12:57:41;76424.81;;;-145.72;100.00
15914;BME280;8055;51.930;8.840;2023-05-24T13:00:08;76435.16;;;-145.72;100.00